createdAt,value
2017-07-22T00:01:40.318Z,60.29
2017-07-22T00:04:07.705Z,60.70
2017-07-22T00:06:35.095Z,60.67
2017-07-22T00:09:02.484Z,60.36
2017-07-22T00:11:29.866Z,60.64
2017-07-22T00:13:57.298Z,60.63
2017-07-22T00:16:24.911Z,60.66
2017-07-22T00:18:52.297Z,61.42
2017-07-22T00:21:19.679Z,61.66
2017-07-22T00:23:47.070Z,61.94
2017-07-22T00:26:14.459Z,62.01
2017-07-22T00:28:41.855Z,63.00
2017-07-22T00:31:09.234Z,63.04
2017-07-22T00:33:36.626Z,63.24
2017-07-22T00:36:04.226Z,63.56
2017-07-22T00:38:31.616Z,63.86
2017-07-22T00:40:59.003Z,64.66
2017-07-22T00:43:26.394Z,64.45
2017-07-22T00:45:53.810Z,64.89
2017-07-22T00:48:21.208Z,64.77
2017-07-22T00:50:48.587Z,64.80
2017-07-22T00:53:15.974Z,64.84
2017-07-22T00:55:43.371Z,64.30
2017-07-22T00:58:10.781Z,65.17
2017-07-22T01:00:38.169Z,65.27
2017-07-22T01:03:05.558Z,65.90
2017-07-22T01:05:32.949Z,66.26
2017-07-22T01:08:00.336Z,66.12
2017-07-22T01:12:52.926Z,66.21
2017-07-22T01:15:20.317Z,66.51
2017-07-22T01:17:47.703Z,66.77
2017-07-22T01:20:15.091Z,67.43
2017-07-22T01:22:42.495Z,67.16
2017-07-22T01:25:09.887Z,67.56
2017-07-22T01:27:37.270Z,68.07
2017-07-22T01:30:04.672Z,67.84
2017-07-22T01:32:32.058Z,68.36
2017-07-22T01:34:59.451Z,68.11
2017-07-22T01:37:26.838Z,68.67
2017-07-22T01:39:54.238Z,68.69
2017-07-22T01:42:21.637Z,69.08
2017-07-22T01:44:49.035Z,69.35
2017-07-22T01:47:16.410Z,69.17
2017-07-22T01:49:43.811Z,69.24
2017-07-22T01:52:11.191Z,69.66
2017-07-22T01:54:38.596Z,70.11
2017-07-22T01:57:05.986Z,70.41
2017-07-22T01:59:33.382Z,70.43
2017-07-22T02:02:00.766Z,70.73
2017-07-22T02:04:28.163Z,70.50
2017-07-22T02:06:55.549Z,70.71
2017-07-22T02:09:22.947Z,70.88
2017-07-22T02:11:50.336Z,70.83
2017-07-22T02:14:17.743Z,70.98
2017-07-22T02:16:46.014Z,71.26
2017-07-22T02:19:13.406Z,70.96
2017-07-22T02:21:40.810Z,71.03
2017-07-22T02:24:08.194Z,71.10
2017-07-22T02:26:35.573Z,71.60
2017-07-22T02:29:02.970Z,71.03
2017-07-22T02:31:30.363Z,71.47
2017-07-22T02:33:57.759Z,70.61
2017-07-22T02:36:25.156Z,70.65
2017-07-22T02:38:52.548Z,70.20
2017-07-22T02:41:19.930Z,70.24
2017-07-22T02:43:47.316Z,70.18
2017-07-22T02:46:14.711Z,70.51
2017-07-22T02:48:42.103Z,70.54
2017-07-22T02:51:09.495Z,70.54
2017-07-22T02:53:36.895Z,71.20
2017-07-22T02:56:04.287Z,71.43
2017-07-22T02:58:31.675Z,70.78
2017-07-22T03:00:59.067Z,71.36
2017-07-22T03:03:26.454Z,72.18
2017-07-22T03:05:53.849Z,72.17
2017-07-22T03:08:21.245Z,72.20
2017-07-22T03:10:48.630Z,72.26
2017-07-22T03:13:16.012Z,72.29
2017-07-22T03:15:43.415Z,72.37
2017-07-22T03:18:10.817Z,72.67
2017-07-22T03:20:38.202Z,72.72
2017-07-22T03:23:05.590Z,72.62
2017-07-22T03:25:32.983Z,72.63
2017-07-22T03:28:00.378Z,72.46
2017-07-22T03:30:28.045Z,72.67
2017-07-22T03:32:55.427Z,72.73
2017-07-22T03:35:22.815Z,72.28
2017-07-22T03:37:50.199Z,72.83
2017-07-22T03:40:17.871Z,72.83
2017-07-22T03:42:45.462Z,72.79
2017-07-22T03:45:12.867Z,73.35
2017-07-22T03:47:40.251Z,72.68
2017-07-22T03:50:07.900Z,73.03
2017-07-22T03:52:41.043Z,72.94
2017-07-22T03:55:08.450Z,72.85
2017-07-22T03:57:35.832Z,72.51
2017-07-22T04:00:03.234Z,72.35
2017-07-22T04:02:30.618Z,72.71
2017-07-22T04:04:58.014Z,72.52
2017-07-22T04:07:25.412Z,73.08
2017-07-22T04:09:53.011Z,73.20
2017-07-22T04:12:20.405Z,73.42
2017-07-22T04:14:47.793Z,73.30
2017-07-22T04:17:15.186Z,73.77
2017-07-22T04:19:42.570Z,73.61
2017-07-22T04:22:09.968Z,73.79
2017-07-22T04:24:37.359Z,73.06
2017-07-22T04:27:04.759Z,72.93
2017-07-22T04:29:32.153Z,73.51
2017-07-22T04:31:59.543Z,73.53
2017-07-22T04:34:26.932Z,73.36
2017-07-22T04:36:54.327Z,74.02
2017-07-22T04:39:21.710Z,73.87
2017-07-22T04:41:49.105Z,73.82
2017-07-22T04:44:16.716Z,73.46
2017-07-22T04:46:44.116Z,74.03
2017-07-22T04:49:11.719Z,73.71
2017-07-22T04:51:39.118Z,73.66
2017-07-22T04:54:06.502Z,73.66
2017-07-22T04:56:33.903Z,73.57
2017-07-22T04:59:01.287Z,73.52
2017-07-22T05:01:28.681Z,73.41
2017-07-22T05:03:56.066Z,73.42
2017-07-22T05:06:23.768Z,72.51
2017-07-22T05:08:51.149Z,72.78
2017-07-22T05:11:18.554Z,73.28
2017-07-22T05:13:45.952Z,73.44
2017-07-22T05:16:13.363Z,73.31
2017-07-22T05:18:40.751Z,73.63
2017-07-22T05:21:08.408Z,73.78
2017-07-22T05:23:35.798Z,74.46
2017-07-22T05:26:03.191Z,74.99
2017-07-22T05:28:30.592Z,74.54
2017-07-22T05:30:57.988Z,74.61
2017-07-22T05:33:25.380Z,74.51
2017-07-22T05:35:52.768Z,74.35
2017-07-22T05:38:20.166Z,74.16
2017-07-22T05:40:47.550Z,74.28
2017-07-22T05:43:14.950Z,74.70
2017-07-22T05:45:42.342Z,74.17
2017-07-22T05:48:09.754Z,74.58
2017-07-22T05:50:37.146Z,74.40
2017-07-22T05:53:04.546Z,74.97
2017-07-22T05:55:31.943Z,75.19
2017-07-22T05:57:59.339Z,74.79
2017-07-22T06:00:26.740Z,74.47
2017-07-22T06:02:54.135Z,75.04
2017-07-22T06:05:21.530Z,75.25
2017-07-22T06:07:48.927Z,75.36
2017-07-22T06:10:16.615Z,75.26
2017-07-22T06:12:44.018Z,75.39
2017-07-22T06:15:11.429Z,75.64
2017-07-22T06:17:38.827Z,75.46
2017-07-22T06:20:06.227Z,75.20
2017-07-22T06:22:33.625Z,75.10
2017-07-22T06:25:01.022Z,75.57
2017-07-22T06:27:28.707Z,75.24
2017-07-22T06:29:56.107Z,74.76
2017-07-22T06:32:23.527Z,74.39
2017-07-22T06:34:50.923Z,74.23
2017-07-22T06:37:18.315Z,74.63
2017-07-22T06:39:45.719Z,74.16
2017-07-22T06:42:13.346Z,74.25
2017-07-22T06:44:40.746Z,74.08
2017-07-22T06:47:08.355Z,73.97
2017-07-22T06:49:35.758Z,74.43
2017-07-22T06:52:03.154Z,74.13
2017-07-22T06:54:30.559Z,74.81
2017-07-22T06:56:57.942Z,75.22
2017-07-22T06:59:25.344Z,74.99
2017-07-22T07:01:52.734Z,74.63
2017-07-22T07:04:20.130Z,75.98
2017-07-22T07:06:47.535Z,76.33
2017-07-22T07:09:14.999Z,75.57
2017-07-22T07:11:42.374Z,75.24
2017-07-22T07:14:09.775Z,74.34
2017-07-22T07:16:37.171Z,75.39
2017-07-22T07:19:04.597Z,75.88
2017-07-22T07:21:31.966Z,73.59
2017-07-22T07:23:59.367Z,73.36
2017-07-22T07:26:26.754Z,73.75
2017-07-22T07:28:54.154Z,72.48
2017-07-22T07:31:21.547Z,73.88
2017-07-22T07:33:48.944Z,74.56
2017-07-22T07:36:16.339Z,71.80
2017-07-22T07:38:43.737Z,72.62
2017-07-22T07:41:11.118Z,72.27
2017-07-22T07:43:38.506Z,72.45
2017-07-22T07:46:05.903Z,71.09
2017-07-22T07:48:33.331Z,71.71
2017-07-22T07:51:00.771Z,71.45
2017-07-22T07:53:28.161Z,71.80
2017-07-22T07:55:55.562Z,71.26
2017-07-22T07:58:22.946Z,70.89
2017-07-22T08:00:50.342Z,73.00
2017-07-22T08:03:19.159Z,72.83
2017-07-22T08:05:46.546Z,72.03
2017-07-22T08:08:13.939Z,71.47
2017-07-22T08:10:41.338Z,71.80
2017-07-22T08:13:08.730Z,72.99
2017-07-22T08:15:36.126Z,73.45
2017-07-22T08:18:03.509Z,71.77
2017-07-22T08:20:30.919Z,70.96
2017-07-22T08:22:58.311Z,70.65
2017-07-22T08:25:25.734Z,72.63
2017-07-22T08:27:53.131Z,73.92
2017-07-22T08:30:20.564Z,73.72
2017-07-22T08:32:47.946Z,72.88
2017-07-22T08:35:15.343Z,72.50
2017-07-22T08:37:42.754Z,72.60
2017-07-22T08:40:10.458Z,75.32
2017-07-22T08:42:38.123Z,75.68
2017-07-22T08:45:05.545Z,77.73
2017-07-22T08:47:33.226Z,78.04
2017-07-22T08:50:00.635Z,78.42
2017-07-22T08:52:28.030Z,79.23
2017-07-22T08:54:55.431Z,79.38
2017-07-22T08:57:23.034Z,79.50
2017-07-22T08:59:50.717Z,79.47
2017-07-22T09:02:18.106Z,80.20
2017-07-22T09:04:45.523Z,79.51
2017-07-22T09:07:12.946Z,79.27
2017-07-22T09:09:40.353Z,79.76
2017-07-22T09:12:08.000Z,80.19
2017-07-22T09:14:35.391Z,80.36
2017-07-22T09:17:02.790Z,79.99
2017-07-22T09:19:30.185Z,79.78
2017-07-22T09:21:57.822Z,79.79
2017-07-22T09:24:25.221Z,80.51
2017-07-22T09:26:52.618Z,80.03
2017-07-22T09:29:20.016Z,80.27
2017-07-22T09:31:47.485Z,80.81
2017-07-22T09:34:14.868Z,80.10
2017-07-22T09:36:42.274Z,80.15
2017-07-22T09:39:09.675Z,80.64
2017-07-22T09:41:37.085Z,79.55
2017-07-22T09:44:04.493Z,81.14
2017-07-22T09:46:31.883Z,80.72
2017-07-22T09:48:59.278Z,81.25
2017-07-22T09:51:26.689Z,80.68
2017-07-22T09:53:54.083Z,81.91
2017-07-22T09:56:21.486Z,81.14
2017-07-22T09:58:49.034Z,81.71
2017-07-22T10:01:16.423Z,81.65
2017-07-22T10:03:43.819Z,81.07
2017-07-22T10:06:11.218Z,81.68
2017-07-22T10:08:38.618Z,80.67
2017-07-22T10:11:06.021Z,80.95
2017-07-22T10:13:33.425Z,81.26
2017-07-22T10:16:00.826Z,81.23
2017-07-22T10:18:28.218Z,81.22
2017-07-22T10:20:55.619Z,80.70
2017-07-22T10:23:23.010Z,79.22
2017-07-22T10:25:50.406Z,79.25
2017-07-22T10:28:17.822Z,79.09
2017-07-22T10:30:45.211Z,79.41
2017-07-22T10:33:12.617Z,79.73
2017-07-22T10:35:40.011Z,79.69
2017-07-22T10:38:07.415Z,79.51
2017-07-22T10:40:34.802Z,79.01
2017-07-22T10:43:02.198Z,79.34
2017-07-22T10:45:29.602Z,79.33
2017-07-22T10:47:56.989Z,79.61
2017-07-22T10:50:24.374Z,78.99
2017-07-22T10:52:51.767Z,77.86
2017-07-22T10:55:19.163Z,78.13
2017-07-22T10:57:46.551Z,76.29
2017-07-22T11:00:13.933Z,76.77
2017-07-22T11:02:41.326Z,75.87
2017-07-22T11:05:08.719Z,75.71
2017-07-22T11:07:36.115Z,75.35
2017-07-22T11:10:03.506Z,74.69
2017-07-22T11:12:30.894Z,74.53
2017-07-22T11:14:58.280Z,75.87
2017-07-22T11:17:25.666Z,76.58
2017-07-22T11:19:53.070Z,76.58
2017-07-22T11:22:20.463Z,76.43
2017-07-22T11:24:47.851Z,76.95
2017-07-22T11:27:15.250Z,77.53
2017-07-22T11:29:42.644Z,76.83
2017-07-22T11:32:10.039Z,77.10
2017-07-22T11:34:37.427Z,73.37
2017-07-22T11:37:04.816Z,73.25
2017-07-22T11:39:32.210Z,73.74
2017-07-22T11:41:59.598Z,72.46
2017-07-22T11:44:27.001Z,74.78
2017-07-22T11:46:54.386Z,76.32
2017-07-22T11:49:21.774Z,76.96
2017-07-22T11:51:49.180Z,77.76
2017-07-22T11:56:40.848Z,77.49
2017-07-22T11:59:08.495Z,78.33
2017-07-22T12:01:35.886Z,78.87
2017-07-22T12:04:03.285Z,77.59
2017-07-22T12:06:30.683Z,76.88
2017-07-22T12:08:58.319Z,79.34
2017-07-22T12:11:25.714Z,80.29
2017-07-22T12:13:53.114Z,79.65
2017-07-22T12:16:20.507Z,79.07
2017-07-22T12:18:47.906Z,80.31
2017-07-22T12:21:15.303Z,81.30
2017-07-22T12:23:42.699Z,80.97
2017-07-22T12:26:10.087Z,78.05
2017-07-22T12:28:37.474Z,78.27
2017-07-22T12:31:04.871Z,77.73
2017-07-22T12:33:32.265Z,77.40
2017-07-22T12:35:59.650Z,78.04
2017-07-22T12:38:27.054Z,76.73
2017-07-22T12:40:54.443Z,77.03
2017-07-22T12:43:21.849Z,76.96
2017-07-22T12:45:49.234Z,76.64
2017-07-22T12:48:16.650Z,76.54
2017-07-22T12:50:44.044Z,76.11
2017-07-22T12:53:11.431Z,75.90
2017-07-22T12:55:38.823Z,75.86
2017-07-22T12:58:06.216Z,76.50
2017-07-22T13:00:33.611Z,76.36
2017-07-22T13:03:00.998Z,75.67
2017-07-22T13:05:28.695Z,76.30
2017-07-22T13:07:56.079Z,75.87
2017-07-22T13:10:23.485Z,76.70
2017-07-22T13:12:50.876Z,76.20
2017-07-22T13:15:18.275Z,76.18
2017-07-22T13:17:45.665Z,75.54
2017-07-22T13:20:13.058Z,75.70
2017-07-22T13:22:40.459Z,76.75
2017-07-22T13:25:07.867Z,76.03
2017-07-22T13:27:35.336Z,76.49
2017-07-22T13:30:02.906Z,74.41
2017-07-22T13:32:30.298Z,75.75
2017-07-22T13:34:57.690Z,75.66
2017-07-22T13:37:25.124Z,74.78
2017-07-22T13:39:52.613Z,75.44
2017-07-22T13:42:20.075Z,75.70
2017-07-22T13:44:47.482Z,75.98
2017-07-22T13:47:14.880Z,74.81
2017-07-22T13:49:42.340Z,74.37
2017-07-22T13:52:09.805Z,72.92
2017-07-22T13:54:37.203Z,73.09
2017-07-22T13:57:04.657Z,74.35
2017-07-22T13:59:32.061Z,73.15
2017-07-22T14:01:59.461Z,73.27
2017-07-22T14:04:26.999Z,72.87
2017-07-22T14:06:54.399Z,72.47
2017-07-22T14:09:21.790Z,71.73
2017-07-22T14:11:49.202Z,71.99
2017-07-22T14:14:16.612Z,72.23
2017-07-22T14:16:44.010Z,72.33
2017-07-22T14:19:11.414Z,72.59
2017-07-22T14:21:38.806Z,72.04
2017-07-22T14:24:06.489Z,72.23
2017-07-22T14:26:33.895Z,72.20
2017-07-22T14:29:01.291Z,73.02
2017-07-22T14:31:28.698Z,72.17
2017-07-22T14:33:56.100Z,72.76
2017-07-22T14:36:23.519Z,73.65
2017-07-22T14:38:50.933Z,72.31
2017-07-22T14:41:18.338Z,73.80
2017-07-22T14:43:45.752Z,72.58
2017-07-22T14:46:13.172Z,72.35
2017-07-22T14:48:40.590Z,73.35
2017-07-22T14:51:07.995Z,72.31
2017-07-22T14:53:35.391Z,72.17
2017-07-22T14:56:02.802Z,71.72
2017-07-22T14:58:30.208Z,71.64
2017-07-22T15:00:57.611Z,71.38
2017-07-22T15:03:25.011Z,70.75
2017-07-22T15:05:52.430Z,70.83
2017-07-22T15:08:19.823Z,70.82
2017-07-22T15:10:47.228Z,70.92
2017-07-22T15:13:14.624Z,70.36
2017-07-22T15:15:42.032Z,69.97
2017-07-22T15:18:09.440Z,70.57
2017-07-22T15:20:36.834Z,69.36
2017-07-22T15:23:04.237Z,69.87
2017-07-22T15:25:31.639Z,68.56
2017-07-22T15:27:59.046Z,69.43
2017-07-22T15:30:26.435Z,68.70
2017-07-22T15:32:53.840Z,71.06
2017-07-22T15:35:21.246Z,71.33
2017-07-22T15:37:48.646Z,71.00
2017-07-22T15:40:16.064Z,71.03
2017-07-22T15:42:43.501Z,71.08
2017-07-22T15:45:10.883Z,71.33
2017-07-22T15:47:38.286Z,71.55
2017-07-22T15:50:05.690Z,73.45
2017-07-22T15:52:33.090Z,72.65
2017-07-22T15:55:00.488Z,72.70
2017-07-22T15:57:27.892Z,72.90
2017-07-22T15:59:55.287Z,72.86
2017-07-22T16:02:22.711Z,72.66
2017-07-22T16:04:50.103Z,72.33
2017-07-22T16:07:17.508Z,72.75
2017-07-22T16:09:44.902Z,72.10
2017-07-22T16:12:12.311Z,71.94
2017-07-22T16:14:39.706Z,72.21
2017-07-22T16:17:07.105Z,72.32
2017-07-22T16:19:34.508Z,73.01
2017-07-22T16:22:02.090Z,71.78
2017-07-22T16:24:29.470Z,71.47
2017-07-22T16:26:56.867Z,71.12
2017-07-22T16:29:24.258Z,71.01
2017-07-22T16:31:51.675Z,71.28
2017-07-22T16:34:19.067Z,71.55
2017-07-22T16:36:46.462Z,70.97
2017-07-22T16:39:13.869Z,71.26
2017-07-22T16:41:41.262Z,71.31
2017-07-22T16:44:08.658Z,71.60
2017-07-22T16:46:36.053Z,71.29
2017-07-22T16:49:03.462Z,71.58
2017-07-22T16:51:30.846Z,70.54
2017-07-22T16:53:58.287Z,71.06
2017-07-22T16:56:25.684Z,71.00
2017-07-22T16:58:53.091Z,70.51
2017-07-22T17:01:20.506Z,70.88
2017-07-22T17:03:47.920Z,70.56
2017-07-22T17:06:15.320Z,70.36
2017-07-22T17:08:42.722Z,71.42
2017-07-22T17:11:10.132Z,70.50
2017-07-22T17:13:37.531Z,71.11
2017-07-22T17:16:04.912Z,70.93
2017-07-22T17:18:32.313Z,70.47
2017-07-22T17:20:59.701Z,70.41
2017-07-22T17:23:27.104Z,70.85
2017-07-22T17:25:54.504Z,70.56
2017-07-22T17:28:21.903Z,70.62
2017-07-22T17:30:49.299Z,70.52
2017-07-22T17:33:16.698Z,71.09
2017-07-22T17:35:44.109Z,71.17
2017-07-22T17:38:11.516Z,71.65
2017-07-22T17:40:38.931Z,71.26
2017-07-22T17:43:06.330Z,71.85
2017-07-22T17:45:33.727Z,72.58
2017-07-22T17:48:01.151Z,71.96
2017-07-22T17:50:28.546Z,71.30
2017-07-22T17:52:55.946Z,70.22
2017-07-22T17:55:23.348Z,70.23
2017-07-22T17:57:50.742Z,70.48
2017-07-22T18:00:18.151Z,70.33
2017-07-22T18:02:45.544Z,70.71
2017-07-22T18:05:12.943Z,71.04
2017-07-22T18:07:40.339Z,70.93
2017-07-22T18:10:07.747Z,71.13
2017-07-22T18:12:35.151Z,71.65
2017-07-22T18:15:02.559Z,71.58
2017-07-22T18:17:29.951Z,71.34
2017-07-22T18:19:57.363Z,71.34
2017-07-22T18:22:24.770Z,71.46
2017-07-22T18:24:52.171Z,71.15
2017-07-22T18:27:19.567Z,71.73
2017-07-22T18:29:46.965Z,72.96
2017-07-22T18:32:14.366Z,72.83
2017-07-22T18:34:41.771Z,73.36
2017-07-22T18:37:09.173Z,73.50
2017-07-22T18:39:36.579Z,73.68
2017-07-22T18:42:03.982Z,74.10
2017-07-22T18:44:31.370Z,74.38
2017-07-22T18:46:58.766Z,74.31
2017-07-22T18:49:26.166Z,74.75
2017-07-22T18:51:53.567Z,74.25
2017-07-22T18:54:20.976Z,74.05
2017-07-22T18:56:48.370Z,73.82
2017-07-22T18:59:15.767Z,74.18
2017-07-22T19:01:43.170Z,74.46
2017-07-22T19:04:10.604Z,74.74
2017-07-22T19:06:38.024Z,74.37
2017-07-22T19:09:05.418Z,74.38
2017-07-22T19:11:32.819Z,74.20
2017-07-22T19:14:00.222Z,74.32
2017-07-22T19:16:27.631Z,74.40
2017-07-22T19:18:55.030Z,74.40
2017-07-22T19:21:22.427Z,74.74
2017-07-22T19:23:49.852Z,75.04
2017-07-22T19:26:17.259Z,75.65
2017-07-22T19:28:44.663Z,75.09
2017-07-22T19:31:12.076Z,75.20
2017-07-22T19:33:39.487Z,75.18
2017-07-22T19:36:06.891Z,74.96
2017-07-22T19:38:34.294Z,74.77
2017-07-22T19:41:01.698Z,74.90
2017-07-22T19:43:29.086Z,74.87
2017-07-22T19:45:56.481Z,75.32
2017-07-22T19:48:23.882Z,75.29
2017-07-22T19:50:51.292Z,75.11
2017-07-22T19:53:18.686Z,75.28
2017-07-22T19:55:46.090Z,74.98
2017-07-22T19:58:13.491Z,74.80
2017-07-22T20:00:40.910Z,75.14
2017-07-22T20:03:08.344Z,75.36
2017-07-22T20:05:35.745Z,75.75
2017-07-22T20:08:03.148Z,74.96
2017-07-22T20:10:30.574Z,75.33
2017-07-22T20:12:57.950Z,75.36
2017-07-22T20:15:25.623Z,74.33
2017-07-22T20:17:53.014Z,74.03
2017-07-22T20:20:20.438Z,74.56
2017-07-22T20:22:47.826Z,73.95
2017-07-22T20:25:15.231Z,74.02
2017-07-22T20:27:42.630Z,74.24
2017-07-22T20:30:10.046Z,74.74
2017-07-22T20:32:37.454Z,74.43
2017-07-22T20:35:04.862Z,74.07
2017-07-22T20:37:32.269Z,74.18
2017-07-22T20:39:59.686Z,74.67
2017-07-22T20:42:27.083Z,74.91
2017-07-22T20:44:54.899Z,75.07
2017-07-22T20:47:22.298Z,75.09
2017-07-22T20:49:49.718Z,75.11
2017-07-22T20:52:17.113Z,74.61
2017-07-22T20:54:44.510Z,74.40
2017-07-22T20:57:11.918Z,74.59
2017-07-22T20:59:39.309Z,74.67
2017-07-22T21:02:06.706Z,74.98
2017-07-22T21:04:34.098Z,75.13
2017-07-22T21:07:01.514Z,76.01
2017-07-22T21:09:28.911Z,76.51
2017-07-22T21:11:56.310Z,76.92
2017-07-22T21:14:23.711Z,77.06
2017-07-22T21:16:51.112Z,76.94
2017-07-22T21:19:18.507Z,77.48
2017-07-22T21:21:45.918Z,77.73
2017-07-22T21:24:13.336Z,77.84
2017-07-22T21:26:40.739Z,78.09
2017-07-22T21:29:08.150Z,77.67
2017-07-22T21:31:35.858Z,77.26
2017-07-22T21:34:03.256Z,77.25
2017-07-22T21:36:30.664Z,77.74
2017-07-22T21:38:58.331Z,78.73
2017-07-22T21:41:25.727Z,78.84
2017-07-22T21:43:53.137Z,78.65
2017-07-22T21:46:20.537Z,78.50
2017-07-22T21:48:47.935Z,78.49
2017-07-22T21:51:15.339Z,79.04
2017-07-22T21:53:42.755Z,79.60
2017-07-22T21:56:10.134Z,79.76
2017-07-22T21:58:37.571Z,79.44
2017-07-22T22:01:04.955Z,78.71
2017-07-22T22:03:32.587Z,78.63
2017-07-22T22:06:00.251Z,79.01
2017-07-22T22:08:27.666Z,79.74
2017-07-22T22:10:55.065Z,79.82
2017-07-22T22:13:22.480Z,80.04
2017-07-22T22:15:49.899Z,79.86
2017-07-22T22:18:17.332Z,79.40
2017-07-22T22:20:44.727Z,79.34
2017-07-22T22:23:12.442Z,79.03
2017-07-22T22:25:39.853Z,78.59
2017-07-22T22:28:07.272Z,79.16
2017-07-22T22:30:34.670Z,79.39
2017-07-22T22:33:02.086Z,79.18
2017-07-22T22:35:29.470Z,79.02
2017-07-22T22:37:56.878Z,79.20
2017-07-22T22:40:24.275Z,78.78
2017-07-22T22:42:51.687Z,78.47
2017-07-22T22:45:19.082Z,78.60
2017-07-22T22:47:46.489Z,79.34
2017-07-22T22:50:13.899Z,79.65
2017-07-22T22:52:41.307Z,79.56
2017-07-22T22:55:08.704Z,79.24
2017-07-22T22:57:36.098Z,79.36
2017-07-22T23:00:03.519Z,79.46
2017-07-22T23:02:30.926Z,79.51
2017-07-22T23:04:58.327Z,79.81
2017-07-22T23:07:25.718Z,79.91
2017-07-22T23:09:53.127Z,79.91
2017-07-22T23:12:20.519Z,80.11
2017-07-22T23:14:48.216Z,79.95
2017-07-22T23:17:15.619Z,79.78
2017-07-22T23:19:43.022Z,79.40
2017-07-22T23:22:10.425Z,78.90
2017-07-22T23:24:37.826Z,79.43
2017-07-22T23:27:05.224Z,79.51
2017-07-22T23:29:32.618Z,79.45
2017-07-22T23:32:00.012Z,79.63
2017-07-22T23:34:27.427Z,80.01
2017-07-22T23:36:54.819Z,79.73
2017-07-22T23:39:22.225Z,79.52
2017-07-22T23:41:49.620Z,79.51
2017-07-22T23:44:17.023Z,79.42
2017-07-22T23:46:45.390Z,79.49
2017-07-22T23:49:13.019Z,79.99
2017-07-22T23:51:40.410Z,79.86
2017-07-22T23:54:07.814Z,79.57
2017-07-22T23:56:35.217Z,79.43
2017-07-22T23:59:02.630Z,79.11
